createdAt,value
2022-08-28T00:02:31.866Z,4.03
2022-08-28T00:07:35.664Z,2.67
2022-08-28T00:12:38.808Z,3.53
2022-08-28T00:17:42.539Z,3.53
2022-08-28T00:22:45.746Z,3.97
2022-08-28T00:27:55.154Z,3.70
2022-08-28T00:33:01.200Z,3.75
2022-08-28T00:38:05.868Z,4.43
2022-08-28T00:43:09.893Z,5.13
2022-08-28T00:48:12.830Z,3.03
2022-08-28T00:53:15.709Z,1.67
2022-08-28T00:58:19.002Z,2.55
2022-08-28T01:03:25.213Z,3.65
2022-08-28T01:08:31.700Z,3.85
2022-08-28T01:13:35.194Z,4.57
2022-08-28T01:18:38.167Z,2.05
2022-08-28T01:23:51.958Z,4.43
2022-08-28T01:28:55.734Z,2.97
2022-08-28T01:34:01.610Z,3.05
2022-08-28T01:39:22.759Z,2.22
2022-08-28T01:44:27.108Z,3.60
2022-08-28T01:49:29.930Z,0.70
2022-08-28T01:54:32.848Z,4.07
2022-08-28T01:59:36.676Z,2.00
2022-08-28T02:04:39.848Z,3.90
2022-08-28T02:09:43.002Z,3.30
2022-08-28T02:14:45.974Z,3.70
2022-08-28T02:19:48.768Z,6.55
2022-08-28T02:24:51.577Z,3.72
2022-08-28T02:29:55.977Z,3.30
2022-08-28T02:34:58.816Z,3.15
2022-08-28T02:40:01.685Z,2.50
2022-08-28T02:45:06.840Z,3.15
2022-08-28T02:50:11.459Z,3.78
2022-08-28T02:55:17.826Z,3.10
2022-08-28T03:00:23.686Z,3.72
2022-08-28T03:05:27.260Z,3.53
2022-08-28T03:10:30.001Z,5.20
2022-08-28T03:15:32.709Z,3.88
2022-08-28T03:20:35.602Z,5.72
2022-08-28T03:25:38.701Z,2.15
2022-08-28T03:30:41.446Z,3.17
2022-08-28T03:35:44.291Z,4.22
2022-08-28T03:40:47.585Z,3.72
2022-08-28T03:46:03.008Z,3.60
2022-08-28T03:51:10.998Z,5.05
2022-08-28T03:56:16.846Z,3.17
2022-08-28T04:01:20.770Z,3.15
2022-08-28T04:06:23.611Z,1.98
2022-08-28T04:11:26.518Z,2.78
2022-08-28T04:16:29.445Z,2.90
2022-08-28T04:21:32.237Z,8.43
2022-08-28T04:26:37.088Z,5.85
2022-08-28T04:31:39.981Z,5.53
2022-08-28T04:36:42.782Z,2.25
2022-08-28T04:41:45.515Z,3.38
2022-08-28T04:46:48.454Z,2.63
2022-08-28T04:51:51.675Z,2.08
2022-08-28T04:56:54.713Z,2.42
2022-08-28T05:01:57.525Z,2.42
2022-08-28T05:07:00.587Z,3.42
2022-08-28T05:12:05.943Z,5.50
2022-08-28T05:17:09.799Z,5.88
2022-08-28T05:22:12.492Z,2.20
2022-08-28T05:27:15.273Z,2.88
2022-08-28T05:32:18.135Z,3.35
2022-08-28T05:37:21.025Z,4.28
2022-08-28T05:42:23.749Z,6.00
2022-08-28T05:47:33.389Z,3.40
2022-08-28T05:52:36.431Z,2.10
2022-08-28T05:57:40.455Z,2.65
2022-08-28T06:02:44.806Z,2.90
2022-08-28T06:07:47.632Z,3.65
2022-08-28T06:12:50.925Z,2.08
2022-08-28T06:17:54.108Z,1.85
2022-08-28T06:22:56.855Z,2.83
2022-08-28T06:27:59.631Z,5.18
2022-08-28T06:33:02.417Z,4.10
2022-08-28T06:38:05.236Z,5.95
2022-08-28T06:43:08.400Z,4.20
2022-08-28T06:48:12.591Z,2.40
2022-08-28T06:53:18.053Z,2.10
2022-08-28T06:58:20.858Z,4.18
2022-08-28T07:03:23.591Z,2.58
2022-08-28T07:08:28.127Z,3.63
2022-08-28T07:13:33.784Z,2.20
2022-08-28T07:18:37.407Z,3.38
2022-08-28T07:23:42.491Z,2.55
2022-08-28T07:28:46.022Z,4.20
2022-08-28T07:33:52.793Z,3.15
2022-08-28T07:38:58.379Z,3.65
2022-08-28T07:44:19.511Z,2.53
2022-08-28T07:49:22.673Z,2.90
2022-08-28T07:54:25.525Z,3.00
2022-08-28T07:59:34.185Z,4.05
2022-08-28T08:04:40.679Z,4.18
2022-08-28T08:09:43.982Z,3.67
2022-08-28T08:14:46.814Z,4.97
2022-08-28T08:19:49.887Z,4.68
2022-08-28T08:24:54.844Z,7.35
2022-08-28T08:29:57.556Z,4.32
2022-08-28T08:35:00.347Z,4.97
2022-08-28T08:40:05.497Z,8.30
2022-08-28T08:45:13.585Z,6.25
2022-08-28T08:50:31.189Z,4.10
2022-08-28T08:55:39.582Z,4.82
2022-08-28T09:01:24.348Z,5.97
2022-08-28T09:11:35.464Z,7.22
2022-08-28T09:21:46.819Z,5.82
2022-08-28T09:27:14.521Z,10.50
2022-08-28T09:32:24.089Z,6.55
2022-08-28T09:37:28.205Z,8.68
2022-08-28T09:42:49.574Z,7.13
2022-08-28T09:47:56.178Z,6.65
2022-08-28T09:53:10.109Z,10.05
2022-08-28T09:58:13.977Z,5.80
2022-08-28T10:03:22.601Z,6.30
2022-08-28T10:08:55.267Z,5.63
2022-08-28T10:14:03.608Z,6.60
2022-08-28T10:19:19.064Z,7.60
2022-08-28T10:29:48.595Z,11.02
2022-08-28T10:35:15.887Z,5.70
2022-08-28T10:40:25.242Z,8.43
2022-08-28T10:45:30.829Z,10.15
2022-08-28T10:56:03.276Z,9.10
2022-08-28T11:01:09.432Z,7.53
2022-08-28T11:06:30.202Z,8.52
2022-08-28T11:11:44.917Z,8.25
2022-08-28T11:16:47.998Z,10.15
2022-08-28T11:21:55.412Z,10.63
2022-08-28T11:27:21.889Z,12.77
2022-08-28T11:32:50.785Z,10.60
2022-08-28T11:37:55.300Z,11.15
2022-08-28T11:43:30.688Z,11.32
2022-08-28T11:48:36.585Z,13.50
2022-08-28T11:54:05.132Z,11.05
2022-08-28T11:59:10.949Z,15.10
2022-08-28T12:04:19.656Z,13.27
2022-08-28T12:09:50.438Z,10.88
2022-08-28T12:14:56.210Z,14.93
2022-08-28T12:20:12.018Z,14.38
2022-08-28T12:25:27.247Z,14.25
2022-08-28T12:30:39.777Z,15.10
2022-08-28T12:35:43.937Z,17.40
2022-08-28T12:40:53.809Z,15.85
2022-08-28T12:46:30.202Z,14.55
2022-08-28T12:51:35.603Z,13.38
2022-08-28T12:56:39.308Z,12.93
2022-08-28T13:01:43.006Z,15.35
2022-08-28T13:06:45.971Z,12.90
2022-08-28T13:11:51.779Z,14.90
2022-08-28T13:16:55.351Z,13.07
2022-08-28T13:22:09.776Z,17.20
2022-08-28T13:27:12.536Z,14.82
2022-08-28T13:32:19.237Z,12.50
2022-08-28T13:37:48.781Z,14.43
2022-08-28T13:42:54.195Z,16.10
2022-08-28T13:52:59.470Z,17.85
2022-08-28T13:58:02.299Z,14.55
2022-08-28T14:03:23.780Z,15.07
2022-08-28T14:08:26.707Z,14.05
2022-08-28T14:13:29.642Z,14.23
2022-08-28T14:18:32.594Z,13.70
2022-08-28T14:23:35.452Z,14.52
2022-08-28T14:28:38.772Z,15.55
2022-08-28T14:33:42.565Z,14.95
2022-08-28T14:38:50.937Z,17.67
2022-08-28T14:43:57.066Z,18.40
2022-08-28T14:49:02.363Z,18.10
2022-08-28T14:54:06.397Z,18.45
2022-08-28T14:59:16.005Z,15.15
2022-08-28T15:04:23.102Z,16.85
2022-08-28T15:09:26.378Z,16.17
2022-08-28T15:14:29.112Z,18.80
2022-08-28T15:19:31.927Z,19.88
2022-08-28T15:24:34.896Z,18.40
2022-08-28T15:29:37.705Z,15.15
2022-08-28T15:34:41.175Z,22.65
2022-08-28T15:40:02.490Z,16.52
2022-08-28T15:45:06.383Z,17.52
2022-08-28T15:50:11.428Z,14.57
2022-08-28T15:55:14.437Z,15.15
2022-08-28T16:00:17.507Z,19.20
2022-08-28T16:05:20.349Z,16.05
2022-08-28T16:10:23.251Z,16.60
2022-08-28T16:15:25.955Z,16.13
2022-08-28T16:20:28.661Z,17.25
2022-08-28T16:25:31.680Z,16.23
2022-08-28T16:30:37.920Z,17.35
2022-08-28T16:35:48.259Z,16.92
2022-08-28T16:40:54.289Z,17.17
2022-08-28T16:45:57.314Z,13.88
2022-08-28T16:51:00.115Z,16.52
2022-08-28T16:56:04.012Z,12.35
2022-08-28T17:01:08.668Z,13.07
2022-08-28T17:06:17.596Z,16.00
2022-08-28T17:11:21.016Z,17.38
2022-08-28T17:16:24.910Z,13.40
2022-08-28T17:21:46.582Z,14.93
2022-08-28T17:26:49.288Z,13.10
2022-08-28T17:31:52.423Z,11.77
2022-08-28T17:36:55.300Z,16.33
2022-08-28T17:41:58.162Z,15.13
2022-08-28T17:47:01.299Z,13.38
2022-08-28T17:52:04.995Z,13.10
2022-08-28T17:57:07.924Z,15.93
2022-08-28T18:02:11.217Z,12.80
2022-08-28T18:07:14.012Z,14.60
2022-08-28T18:12:16.951Z,16.17
2022-08-28T18:17:19.890Z,12.57
2022-08-28T18:22:26.460Z,14.65
2022-08-28T18:27:32.819Z,12.98
2022-08-28T18:32:35.629Z,10.55
2022-08-28T18:37:38.550Z,13.48
2022-08-28T18:42:41.380Z,13.18
2022-08-28T18:47:44.262Z,14.38
2022-08-28T18:52:47.022Z,11.70
2022-08-28T18:57:49.984Z,11.85
2022-08-28T19:02:55.059Z,13.43
2022-08-28T19:07:58.841Z,11.10
2022-08-28T19:13:03.974Z,12.55
2022-08-28T19:18:07.384Z,14.38
2022-08-28T19:23:13.248Z,12.82
2022-08-28T19:28:19.690Z,12.40
2022-08-28T19:33:22.626Z,12.32
2022-08-28T19:38:25.446Z,12.82
2022-08-28T19:43:44.391Z,13.63
2022-08-28T19:48:49.412Z,14.07
2022-08-28T19:53:58.008Z,11.40
2022-08-28T19:59:03.065Z,14.20
2022-08-28T20:04:08.045Z,10.48
2022-08-28T20:09:13.128Z,11.67
2022-08-28T20:14:17.610Z,10.90
2022-08-28T20:19:21.195Z,10.35
2022-08-28T20:24:24.578Z,16.27
2022-08-28T20:29:27.436Z,12.80
2022-08-28T20:34:30.145Z,13.10
2022-08-28T20:39:33.062Z,14.20
2022-08-28T20:44:36.246Z,11.73
2022-08-28T20:49:39.378Z,12.07
2022-08-28T20:54:42.440Z,12.80
2022-08-28T20:59:46.106Z,13.60
2022-08-28T21:04:49.596Z,11.63
2022-08-28T21:10:04.311Z,13.93
2022-08-28T21:15:09.691Z,15.35
2022-08-28T21:20:14.431Z,10.75
2022-08-28T21:25:17.704Z,13.83
2022-08-28T21:30:21.808Z,12.35
2022-08-28T21:35:25.058Z,13.02
2022-08-28T21:40:27.877Z,11.90
2022-08-28T21:45:30.757Z,15.43
2022-08-28T21:50:34.106Z,13.85
2022-08-28T21:55:36.907Z,16.17
2022-08-28T22:00:41.191Z,12.23
2022-08-28T22:05:45.013Z,12.40
2022-08-28T22:10:48.173Z,12.98
2022-08-28T22:15:51.181Z,13.68
2022-08-28T22:21:12.517Z,16.35
2022-08-28T22:26:19.192Z,16.52
2022-08-28T22:31:22.353Z,13.70
2022-08-28T22:36:25.119Z,14.48
2022-08-28T22:41:32.819Z,11.98
2022-08-28T22:46:36.258Z,15.82
2022-08-28T22:51:39.311Z,15.48
2022-08-28T22:56:42.578Z,12.88
2022-08-28T23:01:45.696Z,15.60
2022-08-28T23:06:48.532Z,14.40
2022-08-28T23:11:51.737Z,13.45
2022-08-28T23:16:56.381Z,13.95
2022-08-28T23:22:00.219Z,13.23
2022-08-28T23:27:32.129Z,13.23
2022-08-28T23:32:25.995Z,12.63
2022-08-28T23:37:29.092Z,15.88
2022-08-28T23:42:34.006Z,16.33
2022-08-28T23:47:40.356Z,14.18
2022-08-28T23:52:44.270Z,18.98
2022-08-28T23:57:47.071Z,15.80
